sensor_id;sensor_type;location;lat;lon;timestamp;pressure;altitude;pressure_sealevel;temperature;humidity
36354;BME280;22383;51.114;13.666;2022-08-30T00:01:10;68709.81;;;13.78;100.00
36354;BME280;22383;51.114;13.666;2022-08-30T00:03:42;68705.81;;;13.74;100.00
36354;BME280;22383;51.114;13.666;2022-08-30T00:06:15;68710.75;;;13.76;100.00
36354;BME280;22383;51.114;13.666;2022-08-30T00:08:43;68706.94;;;13.75;100.00
36354;BME280;22383;51.114;13.666;2022-08-30T00:11:15;68695.56;;;13.65;100.00
36354;BME280;22383;51.114;13.666;2022-08-30T00:13:44;68691.03;;;13.61;100.00
36354;BME280;22383;51.114;13.666;2022-08-30T00:16:13;68663.13;;;13.57;100.00
36354;BME280;22383;51.114;13.666;2022-08-30T00:18:41;68685.75;;;13.54;100.00
36354;BME280;22383;51.114;13.666;2022-08-30T00:21:10;68689.16;;;13.57;100.00
36354;BME280;22383;51.114;13.666;2022-08-30T00:23:38;68642.69;;;13.39;100.00
36354;BME280;22383;51.114;13.666;2022-08-30T00:26:05;68664.16;;;13.34;100.00
36354;BME280;22383;51.114;13.666;2022-08-30T00:28:33;68659.97;;;13.35;100.00
36354;BME280;22383;51.114;13.666;2022-08-30T00:31:01;68660.34;;;13.33;100.00
36354;BME280;22383;51.114;13.666;2022-08-30T00:33:28;68658.66;;;13.32;100.00
36354;BME280;22383;51.114;13.666;2022-08-30T00:35:56;68659.56;;;13.30;100.00
36354;BME280;22383;51.114;13.666;2022-08-30T00:38:23;68651.22;;;13.25;100.00
36354;BME280;22383;51.114;13.666;2022-08-30T00:40:51;68651.44;;;13.28;100.00
36354;BME280;22383;51.114;13.666;2022-08-30T00:43:21;68650.88;;;13.27;100.00
36354;BME280;22383;51.114;13.666;2022-08-30T00:45:51;68645.56;;;13.20;100.00
36354;BME280;22383;51.114;13.666;2022-08-30T00:48:18;68645.34;;;13.24;100.00
36354;BME280;22383;51.114;13.666;2022-08-30T00:50:49;68655.59;;;13.27;100.00
36354;BME280;22383;51.114;13.666;2022-08-30T00:53:24;68648.41;;;13.22;100.00
36354;BME280;22383;51.114;13.666;2022-08-30T00:55:52;68644.59;;;13.21;100.00
36354;BME280;22383;51.114;13.666;2022-08-30T00:58:26;68636.09;;;13.14;100.00
36354;BME280;22383;51.114;13.666;2022-08-30T01:00:56;68630.03;;;13.11;100.00
36354;BME280;22383;51.114;13.666;2022-08-30T01:03:26;68638.19;;;13.13;100.00
36354;BME280;22383;51.114;13.666;2022-08-30T01:05:55;68645.38;;;13.17;100.00
36354;BME280;22383;51.114;13.666;2022-08-30T01:08:23;68654.66;;;13.28;100.00
36354;BME280;22383;51.114;13.666;2022-08-30T01:10:52;68653.91;;;13.25;100.00
36354;BME280;22383;51.114;13.666;2022-08-30T01:13:21;68645.56;;;13.20;100.00
36354;BME280;22383;51.114;13.666;2022-08-30T01:15:49;68630.22;;;13.06;100.00
36354;BME280;22383;51.114;13.666;2022-08-30T01:18:17;68632.50;;;13.08;100.00
36354;BME280;22383;51.114;13.666;2022-08-30T01:23:35;68627.59;;;13.06;100.00
36354;BME280;22383;51.114;13.666;2022-08-30T01:26:05;68607.88;;;12.91;100.00
36354;BME280;22383;51.114;13.666;2022-08-30T01:28:32;68601.44;;;12.82;100.00
36354;BME280;22383;51.114;13.666;2022-08-30T01:31:00;68602.41;;;12.81;100.00
36354;BME280;22383;51.114;13.666;2022-08-30T01:33:28;68598.97;;;12.78;100.00
36354;BME280;22383;51.114;13.666;2022-08-30T01:35:58;68598.25;;;12.75;100.00
36354;BME280;22383;51.114;13.666;2022-08-30T01:38:50;68598.25;;;12.75;100.00
36354;BME280;22383;51.114;13.666;2022-08-30T01:41:19;68594.44;;;12.74;100.00
36354;BME280;22383;51.114;13.666;2022-08-30T01:43:49;68589.13;;;12.74;100.00
36354;BME280;22383;51.114;13.666;2022-08-30T01:46:19;68599.38;;;12.76;100.00
36354;BME280;22383;51.114;13.666;2022-08-30T01:48:47;68596.16;;;12.75;100.00
36354;BME280;22383;51.114;13.666;2022-08-30T01:51:21;68599.38;;;12.76;100.00
36354;BME280;22383;51.114;13.666;2022-08-30T01:53:49;68595.00;;;12.74;100.00
36354;BME280;22383;51.114;13.666;2022-08-30T01:56:16;68595.59;;;12.75;100.00
36354;BME280;22383;51.114;13.666;2022-08-30T01:58:44;68597.66;;;12.74;100.00
36354;BME280;22383;51.114;13.666;2022-08-30T02:01:14;68591.03;;;12.71;100.00
36354;BME280;22383;51.114;13.666;2022-08-30T02:03:43;68588.97;;;12.71;100.00
36354;BME280;22383;51.114;13.666;2022-08-30T02:06:15;68602.78;;;12.79;100.00
36354;BME280;22383;51.114;13.666;2022-08-30T02:08:43;68594.44;;;12.74;100.00
36354;BME280;22383;51.114;13.666;2022-08-30T02:11:12;68590.47;;;12.70;100.00
36354;BME280;22383;51.114;13.666;2022-08-30T02:13:41;68578.56;;;12.59;100.00
36354;BME280;22383;51.114;13.666;2022-08-30T02:16:13;68586.50;;;12.66;100.00
36354;BME280;22383;51.114;13.666;2022-08-30T02:18:42;68571.56;;;12.51;100.00
36354;BME280;22383;51.114;13.666;2022-08-30T02:21:09;68555.28;;;12.38;100.00
36354;BME280;22383;51.114;13.666;2022-08-30T02:23:37;68545.22;;;12.32;100.00
36354;BME280;22383;51.114;13.666;2022-08-30T02:26:05;68541.09;;;12.25;100.00
36354;BME280;22383;51.114;13.666;2022-08-30T02:28:32;68538.63;;;12.21;100.00
36354;BME280;22383;51.114;13.666;2022-08-30T02:31:00;68530.28;;;12.16;100.00
36354;BME280;22383;51.114;13.666;2022-08-30T02:33:27;68529.16;;;12.15;100.00
36354;BME280;22383;51.114;13.666;2022-08-30T02:35:55;68523.84;;;12.07;100.00
36354;BME280;22383;51.114;13.666;2022-08-30T02:38:23;68519.88;;;12.04;100.00
36354;BME280;22383;51.114;13.666;2022-08-30T02:40:51;68521.78;;;12.08;100.00
36354;BME280;22383;51.114;13.666;2022-08-30T02:43:18;68507.19;;;11.97;100.00
36354;BME280;22383;51.114;13.666;2022-08-30T02:45:46;68509.13;;;11.94;100.00
36354;BME280;22383;51.114;13.666;2022-08-30T02:48:14;68507.97;;;11.93;100.00
36354;BME280;22383;51.114;13.666;2022-08-30T02:50:47;68503.41;;;11.89;100.00
36354;BME280;22383;51.114;13.666;2022-08-30T02:53:15;68507.59;;;11.95;100.00
36354;BME280;22383;51.114;13.666;2022-08-30T02:55:43;68498.13;;;11.89;100.00
36354;BME280;22383;51.114;13.666;2022-08-30T02:58:10;68497.91;;;11.86;100.00
36354;BME280;22383;51.114;13.666;2022-08-30T03:00:39;68495.84;;;11.87;100.00
36354;BME280;22383;51.114;13.666;2022-08-30T03:03:07;68494.31;;;11.81;100.00
36354;BME280;22383;51.114;13.666;2022-08-30T03:05:35;68494.88;;;11.81;100.00
36354;BME280;22383;51.114;13.666;2022-08-30T03:08:06;68491.69;;;11.81;100.00
36354;BME280;22383;51.114;13.666;2022-08-30T03:10:34;68491.50;;;11.78;100.00
36354;BME280;22383;51.114;13.666;2022-08-30T03:13:02;68485.06;;;11.77;100.00
36354;BME280;22383;51.114;13.666;2022-08-30T03:15:29;68485.44;;;11.75;100.00
36354;BME280;22383;51.114;13.666;2022-08-30T03:17:57;68479.94;;;11.72;100.00
36354;BME280;22383;51.114;13.666;2022-08-30T03:20:25;68478.25;;;11.71;100.00
36354;BME280;22383;51.114;13.666;2022-08-30T03:22:52;68478.06;;;11.68;100.00
36354;BME280;22383;51.114;13.666;2022-08-30T03:25:20;68475.78;;;11.66;100.00
36354;BME280;22383;51.114;13.666;2022-08-30T03:27:48;68477.13;;;11.70;100.00
36354;BME280;22383;51.114;13.666;2022-08-30T03:30:18;68474.09;;;11.65;100.00
36354;BME280;22383;51.114;13.666;2022-08-30T03:32:45;68476.53;;;11.62;100.00
36354;BME280;22383;51.114;13.666;2022-08-30T03:35:14;68471.06;;;11.60;100.00
36354;BME280;22383;51.114;13.666;2022-08-30T03:37:42;68469.34;;;11.58;100.00
36354;BME280;22383;51.114;13.666;2022-08-30T03:40:11;68467.09;;;11.56;100.00
36354;BME280;22383;51.114;13.666;2022-08-30T03:42:40;68460.28;;;11.57;100.00
36354;BME280;22383;51.114;13.666;2022-08-30T03:45:09;68466.91;;;11.61;100.00
36354;BME280;22383;51.114;13.666;2022-08-30T03:47:37;68467.28;;;11.59;100.00
36354;BME280;22383;51.114;13.666;2022-08-30T03:50:09;68471.06;;;11.60;100.00
36354;BME280;22383;51.114;13.666;2022-08-30T03:52:36;68467.28;;;11.59;100.00
36354;BME280;22383;51.114;13.666;2022-08-30T03:55:04;68465.75;;;11.60;100.00
36354;BME280;22383;51.114;13.666;2022-08-30T03:57:32;68464.25;;;11.53;100.00
36354;BME280;22383;51.114;13.666;2022-08-30T04:00:04;68468.78;;;11.58;100.00
36354;BME280;22383;51.114;13.666;2022-08-30T04:02:38;68468.03;;;11.62;100.00
36354;BME280;22383;51.114;13.666;2022-08-30T04:05:05;68464.63;;;11.59;100.00
36354;BME280;22383;51.114;13.666;2022-08-30T04:07:33;68461.78;;;11.56;100.00
36354;BME280;22383;51.114;13.666;2022-08-30T04:10:01;68457.63;;;11.50;100.00
36354;BME280;22383;51.114;13.666;2022-08-30T04:12:28;68464.81;;;11.54;100.00
36354;BME280;22383;51.114;13.666;2022-08-30T04:14:55;68469.75;;;11.56;100.00
36354;BME280;22383;51.114;13.666;2022-08-30T04:17:23;68459.31;;;11.51;100.00
36354;BME280;22383;51.114;13.666;2022-08-30T04:19:50;68461.41;;;11.51;100.00
36354;BME280;22383;51.114;13.666;2022-08-30T04:22:17;68463.88;;;11.56;100.00
36354;BME280;22383;51.114;13.666;2022-08-30T04:24:44;68467.47;;;11.54;100.00
36354;BME280;22383;51.114;13.666;2022-08-30T04:27:12;68466.72;;;11.58;100.00
36354;BME280;22383;51.114;13.666;2022-08-30T04:29:39;68467.28;;;11.59;100.00
36354;BME280;22383;51.114;13.666;2022-08-30T04:32:06;68466.16;;;11.58;100.00
36354;BME280;22383;51.114;13.666;2022-08-30T04:34:34;68465.00;;;11.57;100.00
36354;BME280;22383;51.114;13.666;2022-08-30T04:37:01;68470.50;;;11.59;100.00
36354;BME280;22383;51.114;13.666;2022-08-30T04:39:30;68475.41;;;11.61;100.00
36354;BME280;22383;51.114;13.666;2022-08-30T04:41:57;68467.47;;;11.61;100.00
36354;BME280;22383;51.114;13.666;2022-08-30T04:44:25;68473.88;;;11.62;100.00
36354;BME280;22383;51.114;13.666;2022-08-30T04:46:53;68474.47;;;11.63;100.00
36354;BME280;22383;51.114;13.666;2022-08-30T04:49:20;68469.56;;;11.61;100.00
36354;BME280;22383;51.114;13.666;2022-08-30T04:51:48;68472.59;;;11.66;100.00
36354;BME280;22383;51.114;13.666;2022-08-30T04:54:16;68472.94;;;11.64;100.00
36354;BME280;22383;51.114;13.666;2022-08-30T04:56:43;68471.63;;;11.60;100.00
36354;BME280;22383;51.114;13.666;2022-08-30T04:59:10;68472.00;;;11.65;100.00
36354;BME280;22383;51.114;13.666;2022-08-30T05:01:37;68481.66;;;11.67;100.00
36354;BME280;22383;51.114;13.666;2022-08-30T05:04:15;68490.53;;;11.80;100.00
36354;BME280;22383;51.114;13.666;2022-08-30T05:06:42;68478.03;;;11.90;100.00
36354;BME280;22383;51.114;13.666;2022-08-30T05:09:10;68515.53;;;12.02;100.00
36354;BME280;22383;51.114;13.666;2022-08-30T05:11:37;68529.16;;;12.15;100.00
36354;BME280;22383;51.114;13.666;2022-08-30T05:14:04;68544.47;;;12.28;100.00
36354;BME280;22383;51.114;13.666;2022-08-30T05:16:32;68567.38;;;12.44;100.00
36354;BME280;22383;51.114;13.666;2022-08-30T05:18:59;68573.25;;;12.52;100.00
36354;BME280;22383;51.114;13.666;2022-08-30T05:21:27;68577.41;;;12.58;100.00
36354;BME280;22383;51.114;13.666;2022-08-30T05:23:57;68588.19;;;12.68;100.00
36354;BME280;22383;51.114;13.666;2022-08-30T05:26:28;68585.94;;;12.66;100.00
36354;BME280;22383;51.114;13.666;2022-08-30T05:28:56;68577.41;;;12.58;100.00
36354;BME280;22383;51.114;13.666;2022-08-30T05:31:26;68569.06;;;12.53;100.00
36354;BME280;22383;51.114;13.666;2022-08-30T05:33:54;68564.94;;;12.47;100.00
36354;BME280;22383;51.114;13.666;2022-08-30T05:36:24;68572.66;;;12.52;100.00
36354;BME280;22383;51.114;13.666;2022-08-30T05:38:53;68588.00;;;12.65;100.00
36354;BME280;22383;51.114;13.666;2022-08-30T05:41:22;68590.09;;;12.65;100.00
36354;BME280;22383;51.114;13.666;2022-08-30T05:43:57;68589.72;;;12.67;100.00
36354;BME280;22383;51.114;13.666;2022-08-30T05:46:27;68590.47;;;12.70;100.00
36354;BME280;22383;51.114;13.666;2022-08-30T05:49:05;68595.94;;;12.73;100.00
36354;BME280;22383;51.114;13.666;2022-08-30T05:51:34;68589.53;;;12.72;100.00
36354;BME280;22383;51.114;13.666;2022-08-30T05:54:10;68601.28;;;12.80;100.00
36354;BME280;22383;51.114;13.666;2022-08-30T05:56:39;68609.22;;;12.87;100.00
36354;BME280;22383;51.114;13.666;2022-08-30T05:59:08;68614.69;;;12.97;100.00
36354;BME280;22383;51.114;13.666;2022-08-30T06:01:38;68627.00;;;13.05;100.00
36354;BME280;22383;51.114;13.666;2022-08-30T06:04:07;68645.75;;;13.22;100.00
36354;BME280;22383;51.114;13.666;2022-08-30T06:06:37;68655.22;;;13.29;100.00
36354;BME280;22383;51.114;13.666;2022-08-30T06:09:06;68680.81;;;13.52;100.00
36354;BME280;22383;51.114;13.666;2022-08-30T06:11:35;68691.59;;;13.61;100.00
36354;BME280;22383;51.114;13.666;2022-08-30T06:14:04;68705.25;;;13.74;100.00
36354;BME280;22383;51.114;13.666;2022-08-30T06:16:31;68717.16;;;13.85;100.00
36354;BME280;22383;51.114;13.666;2022-08-30T06:18:59;68734.22;;;14.00;100.00
36354;BME280;22383;51.114;13.666;2022-08-30T06:21:32;68754.47;;;14.23;100.00
36354;BME280;22383;51.114;13.666;2022-08-30T06:24:02;68791.81;;;14.54;100.00
36354;BME280;22383;51.114;13.666;2022-08-30T06:26:30;68816.69;;;14.74;100.00
36354;BME280;22383;51.114;13.666;2022-08-30T06:28:58;68842.69;;;14.96;100.00
36354;BME280;22383;51.114;13.666;2022-08-30T06:31:25;68865.50;;;15.40;100.00
36354;BME280;22383;51.114;13.666;2022-08-30T06:33:53;68907.31;;;15.59;100.00
36354;BME280;22383;51.114;13.666;2022-08-30T06:36:23;68904.78;;;15.76;100.00
36354;BME280;22383;51.114;13.666;2022-08-30T06:38:53;68961.06;;;16.02;100.00
36354;BME280;22383;51.114;13.666;2022-08-30T06:41:24;68948.88;;;15.96;100.00
36354;BME280;22383;51.114;13.666;2022-08-30T06:43:53;68934.66;;;15.83;100.00
36354;BME280;22383;51.114;13.666;2022-08-30T06:46:26;68934.09;;;15.83;100.00
36354;BME280;22383;51.114;13.666;2022-08-30T06:48:55;68913.31;;;15.83;100.00
36354;BME280;22383;51.114;13.666;2022-08-30T06:51:25;68931.63;;;15.78;100.00
36354;BME280;22383;51.114;13.666;2022-08-30T06:53:52;68933.34;;;15.80;100.00
36354;BME280;22383;51.114;13.666;2022-08-30T06:56:20;68932.56;;;15.84;100.00
36354;BME280;22383;51.114;13.666;2022-08-30T06:58:48;68948.13;;;15.93;100.00
36354;BME280;22383;51.114;13.666;2022-08-30T07:01:19;68964.66;;;16.08;100.00
36354;BME280;22383;51.114;13.666;2022-08-30T07:03:48;68986.84;;;16.28;100.00
36354;BME280;22383;51.114;13.666;2022-08-30T07:06:16;69006.78;;;16.46;100.00
36354;BME280;22383;51.114;13.666;2022-08-30T07:08:45;69002.41;;;16.44;100.00
36354;BME280;22383;51.114;13.666;2022-08-30T07:11:13;69022.34;;;16.62;100.00
36354;BME280;22383;51.114;13.666;2022-08-30T07:13:41;69030.13;;;16.67;100.00
36354;BME280;22383;51.114;13.666;2022-08-30T07:16:09;69044.94;;;16.80;100.00
36354;BME280;22383;51.114;13.666;2022-08-30T07:18:37;69080.09;;;17.10;100.00
36354;BME280;22383;51.114;13.666;2022-08-30T07:21:19;69085.97;;;17.17;100.00
36354;BME280;22383;51.114;13.666;2022-08-30T07:23:47;69081.41;;;17.13;100.00
36354;BME280;22383;51.114;13.666;2022-08-30T07:26:23;69085.97;;;17.17;100.00
36354;BME280;22383;51.114;13.666;2022-08-30T07:28:51;69097.19;;;17.25;100.00
36354;BME280;22383;51.114;13.666;2022-08-30T07:31:22;69101.34;;;17.31;100.00
36354;BME280;22383;51.114;13.666;2022-08-30T07:33:50;69099.66;;;17.30;100.00
36354;BME280;22383;51.114;13.666;2022-08-30T07:36:18;69097.56;;;17.30;100.00
36354;BME280;22383;51.114;13.666;2022-08-30T07:38:48;69105.53;;;17.37;100.00
36354;BME280;22383;51.114;13.666;2022-08-30T07:41:21;69111.59;;;17.41;100.00
36354;BME280;22383;51.114;13.666;2022-08-30T07:43:49;69125.69;;;17.51;100.00
36354;BME280;22383;51.114;13.666;2022-08-30T07:46:17;69139.53;;;17.66;100.00
36354;BME280;22383;51.114;13.666;2022-08-30T07:48:45;69139.53;;;17.66;100.00
36354;BME280;22383;51.114;13.666;2022-08-30T07:51:16;69143.69;;;17.72;100.00
36354;BME280;22383;51.114;13.666;2022-08-30T07:53:43;69155.09;;;17.82;100.00
36354;BME280;22383;51.114;13.666;2022-08-30T07:56:11;69171.66;;;17.97;100.00
36354;BME280;22383;51.114;13.666;2022-08-30T07:58:38;69186.31;;;18.08;100.00
36354;BME280;22383;51.114;13.666;2022-08-30T08:01:07;69181.91;;;18.06;100.00
36354;BME280;22383;51.114;13.666;2022-08-30T08:03:35;69190.13;;;18.09;100.00
36354;BME280;22383;51.114;13.666;2022-08-30T08:06:03;69198.44;;;18.21;100.00
36354;BME280;22383;51.114;13.666;2022-08-30T08:08:31;69214.63;;;18.31;100.00
36354;BME280;22383;51.114;13.666;2022-08-30T08:11:06;69206.09;;;18.47;100.00
36354;BME280;22383;51.114;13.666;2022-08-30T08:13:34;69232.66;;;18.52;100.00
36354;BME280;22383;51.114;13.666;2022-08-30T08:16:22;69245.19;;;18.63;100.00
36354;BME280;22383;51.114;13.666;2022-08-30T08:18:52;69260.44;;;18.75;100.00
36354;BME280;22383;51.114;13.666;2022-08-30T08:21:21;69262.88;;;18.79;100.00
36354;BME280;22383;51.114;13.666;2022-08-30T08:23:49;69255.72;;;18.92;100.00
36354;BME280;22383;51.114;13.666;2022-08-30T08:26:18;69292.00;;;19.05;100.00
36354;BME280;22383;51.114;13.666;2022-08-30T08:28:46;69295.63;;;19.28;100.00
36354;BME280;22383;51.114;13.666;2022-08-30T08:31:19;69336.91;;;19.43;100.00
36354;BME280;22383;51.114;13.666;2022-08-30T08:33:47;69345.63;;;19.54;100.00
36354;BME280;22383;51.114;13.666;2022-08-30T08:36:14;69332.16;;;19.61;100.00
36354;BME280;22383;51.114;13.666;2022-08-30T08:38:42;69376.88;;;19.79;100.00
36354;BME280;22383;51.114;13.666;2022-08-30T08:44:19;69414.69;;;20.16;100.00
36354;BME280;22383;51.114;13.666;2022-08-30T08:49:34;69448.41;;;20.46;100.00
36354;BME280;22383;51.114;13.666;2022-08-30T08:52:04;69436.59;;;20.55;100.00
36354;BME280;22383;51.114;13.666;2022-08-30T08:54:54;69461.69;;;20.61;100.00
36354;BME280;22383;51.114;13.666;2022-08-30T08:57:30;69494.09;;;20.87;100.00
36354;BME280;22383;51.114;13.666;2022-08-30T08:59:59;69490.09;;;20.84;100.00
36354;BME280;22383;51.114;13.666;2022-08-30T09:02:36;69486.09;;;20.80;100.00
36354;BME280;22383;51.114;13.666;2022-08-30T09:05:05;69473.38;;;20.66;100.00
36354;BME280;22383;51.114;13.666;2022-08-30T09:07:37;69459.44;;;20.75;100.00
36354;BME280;22383;51.114;13.666;2022-08-30T09:10:07;69502.69;;;20.95;100.00
36354;BME280;22383;51.114;13.666;2022-08-30T09:12:34;69524.38;;;21.14;100.00
36354;BME280;22383;51.114;13.666;2022-08-30T09:15:25;69526.09;;;21.16;100.00
36354;BME280;22383;51.114;13.666;2022-08-30T09:18:02;69537.50;;;21.26;100.00
36354;BME280;22383;51.114;13.666;2022-08-30T09:23:23;69543.81;;;21.32;100.00
36354;BME280;22383;51.114;13.666;2022-08-30T09:26:05;69511.41;;;21.22;100.00
36354;BME280;22383;51.114;13.666;2022-08-30T09:28:46;69513.13;;;21.24;100.00
36354;BME280;22383;51.114;13.666;2022-08-30T09:31:24;69507.44;;;21.19;100.00
36354;BME280;22383;51.114;13.666;2022-08-30T09:33:59;69535.97;;;21.27;100.00
36354;BME280;22383;51.114;13.666;2022-08-30T09:36:44;69558.09;;;21.45;100.00
36354;BME280;22383;51.114;13.666;2022-08-30T09:39:33;69535.41;;;21.44;100.00
36354;BME280;22383;51.114;13.666;2022-08-30T09:42:19;69550.28;;;21.57;100.00
36354;BME280;22383;51.114;13.666;2022-08-30T09:44:50;69569.53;;;21.55;100.00
36354;BME280;22383;51.114;13.666;2022-08-30T09:47:29;69550.84;;;21.58;100.00
36354;BME280;22383;51.114;13.666;2022-08-30T09:50:24;69583.81;;;21.68;100.00
36354;BME280;22383;51.114;13.666;2022-08-30T09:53:01;69572.56;;;21.77;100.00
36354;BME280;22383;51.114;13.666;2022-08-30T09:58:19;69610.53;;;21.89;100.00
36354;BME280;22383;51.114;13.666;2022-08-30T10:01:12;69576.00;;;21.80;100.00
36354;BME280;22383;51.114;13.666;2022-08-30T10:06:43;69604.00;;;22.05;100.00
36354;BME280;22383;51.114;13.666;2022-08-30T10:12:13;69652.44;;;22.30;100.00
36354;BME280;22383;51.114;13.666;2022-08-30T10:20:58;69620.00;;;22.20;100.00
36354;BME280;22383;51.114;13.666;2022-08-30T10:23:37;69647.09;;;22.22;100.00
36354;BME280;22383;51.114;13.666;2022-08-30T10:26:30;69638.31;;;22.36;100.00
36354;BME280;22383;51.114;13.666;2022-08-30T10:29:08;69646.69;;;22.24;100.00
36354;BME280;22383;51.114;13.666;2022-08-30T10:31:58;69625.56;;;22.05;100.00
36354;BME280;22383;51.114;13.666;2022-08-30T10:34:35;69601.13;;;22.03;100.00
36354;BME280;22383;51.114;13.666;2022-08-30T10:37:28;69637.38;;;22.14;100.00
36354;BME280;22383;51.114;13.666;2022-08-30T10:39:58;69642.13;;;22.20;100.00
36354;BME280;22383;51.114;13.666;2022-08-30T10:42:51;69654.31;;;22.51;100.00
36354;BME280;22383;51.114;13.666;2022-08-30T10:45:20;69673.59;;;22.49;100.00
36354;BME280;22383;51.114;13.666;2022-08-30T10:48:29;69689.03;;;22.62;100.00
36354;BME280;22383;51.114;13.666;2022-08-30T10:50:50;69698.34;;;22.73;100.00
36354;BME280;22383;51.114;13.666;2022-08-30T10:53:31;69704.06;;;22.95;100.00
36354;BME280;22383;51.114;13.666;2022-08-30T10:56:05;69705.19;;;22.96;95.48
36354;BME280;22383;51.114;13.666;2022-08-30T10:58:37;69753.69;;;23.20;100.00
36354;BME280;22383;51.114;13.666;2022-08-30T11:04:15;69744.94;;;23.10;100.00
36354;BME280;22383;51.114;13.666;2022-08-30T11:07:06;69701.31;;;22.69;100.00
36354;BME280;22383;51.114;13.666;2022-08-30T11:09:48;69647.84;;;22.25;100.00
36354;BME280;22383;51.114;13.666;2022-08-30T11:12:32;69619.84;;;22.00;100.00
36354;BME280;22383;51.114;13.666;2022-08-30T11:15:23;69602.69;;;21.85;100.00
36354;BME280;22383;51.114;13.666;2022-08-30T11:20:43;69593.53;;;21.77;100.00
36354;BME280;22383;51.114;13.666;2022-08-30T11:33:46;69718.78;;;22.89;100.00
36354;BME280;22383;51.114;13.666;2022-08-30T11:39:09;69704.47;;;22.76;100.00
36354;BME280;22383;51.114;13.666;2022-08-30T11:41:43;69665.19;;;22.60;100.00
36354;BME280;22383;51.114;13.666;2022-08-30T11:44:27;69625.72;;;22.25;100.00
36354;BME280;22383;51.114;13.666;2022-08-30T11:46:57;69635.66;;;22.12;100.00
36354;BME280;22383;51.114;13.666;2022-08-30T11:49:55;69647.28;;;22.25;100.00
36354;BME280;22383;51.114;13.666;2022-08-30T12:00:45;69668.84;;;22.42;100.00
36354;BME280;22383;51.114;13.666;2022-08-30T12:05:54;69705.78;;;22.97;100.00
36354;BME280;22383;51.114;13.666;2022-08-30T12:16:14;69653.19;;;22.50;100.00
36354;BME280;22383;51.114;13.666;2022-08-30T12:19:15;69652.03;;;22.49;100.00
36354;BME280;22383;51.114;13.666;2022-08-30T12:21:54;69656.59;;;22.53;100.00
36354;BME280;22383;51.114;13.666;2022-08-30T12:24:30;69652.59;;;22.49;100.00
36354;BME280;22383;51.114;13.666;2022-08-30T12:27:19;69649.59;;;22.27;100.00
36354;BME280;22383;51.114;13.666;2022-08-30T12:29:59;69618.69;;;21.99;100.00
36354;BME280;22383;51.114;13.666;2022-08-30T12:32:28;69569.16;;;21.74;100.00
36354;BME280;22383;51.114;13.666;2022-08-30T12:35:02;69545.13;;;21.52;100.00
36354;BME280;22383;51.114;13.666;2022-08-30T12:37:36;69559.28;;;21.46;100.00
36354;BME280;22383;51.114;13.666;2022-08-30T12:40:17;69543.22;;;21.31;100.00
36354;BME280;22383;51.114;13.666;2022-08-30T12:42:52;69533.50;;;21.23;100.00
36354;BME280;22383;51.114;13.666;2022-08-30T12:45:23;69509.16;;;21.20;100.00
36354;BME280;22383;51.114;13.666;2022-08-30T12:48:04;69532.78;;;21.20;100.00
36354;BME280;22383;51.114;13.666;2022-08-30T12:50:36;69532.22;;;21.19;100.00
36354;BME280;22383;51.114;13.666;2022-08-30T12:53:12;69512.00;;;21.23;100.00
36354;BME280;22383;51.114;13.666;2022-08-30T12:58:55;69512.00;;;21.23;100.00
36354;BME280;22383;51.114;13.666;2022-08-30T13:04:02;69516.41;;;21.07;100.00
36354;BME280;22383;51.114;13.666;2022-08-30T13:07:01;69526.66;;;21.17;100.00
36354;BME280;22383;51.114;13.666;2022-08-30T13:09:34;69521.13;;;21.14;100.00
36354;BME280;22383;51.114;13.666;2022-08-30T13:12:10;69535.81;;;21.25;100.00
36354;BME280;22383;51.114;13.666;2022-08-30T13:14:46;69535.22;;;21.24;100.00
36354;BME280;22383;51.114;13.666;2022-08-30T13:17:23;69551.63;;;21.37;100.00
36354;BME280;22383;51.114;13.666;2022-08-30T13:20:04;69561.72;;;21.67;100.00
36354;BME280;22383;51.114;13.666;2022-08-30T13:22:37;69599.97;;;22.02;100.00
36354;BME280;22383;51.114;13.666;2022-08-30T13:25:07;69659.31;;;22.36;100.00
36354;BME280;22383;51.114;13.666;2022-08-30T13:27:36;69659.31;;;22.36;100.00
36354;BME280;22383;51.114;13.666;2022-08-30T13:30:11;69642.13;;;22.20;100.00
36354;BME280;22383;51.114;13.666;2022-08-30T13:32:41;69640.41;;;22.19;100.00
36354;BME280;22383;51.114;13.666;2022-08-30T13:35:10;69617.13;;;22.17;100.00
36354;BME280;22383;51.114;13.666;2022-08-30T13:37:39;69619.25;;;22.00;100.00
36354;BME280;22383;51.114;13.666;2022-08-30T13:40:18;69605.38;;;21.85;100.00
36354;BME280;22383;51.114;13.666;2022-08-30T13:42:46;69563.41;;;21.52;100.00
36354;BME280;22383;51.114;13.666;2022-08-30T13:45:15;69543.06;;;21.29;100.00
36354;BME280;22383;51.114;13.666;2022-08-30T13:48:02;69500.00;;;21.12;100.00
36354;BME280;22383;51.114;13.666;2022-08-30T13:50:32;69504.78;;;20.94;100.00
36354;BME280;22383;51.114;13.666;2022-08-30T13:52:59;69491.25;;;20.85;100.00
36354;BME280;22383;51.114;13.666;2022-08-30T13:55:27;69490.69;;;20.84;100.00
36354;BME280;22383;51.114;13.666;2022-08-30T13:57:54;69510.09;;;21.02;100.00
36354;BME280;22383;51.114;13.666;2022-08-30T14:00:24;69522.69;;;21.13;100.00
36354;BME280;22383;51.114;13.666;2022-08-30T14:02:52;69536.38;;;21.25;100.00
36354;BME280;22383;51.114;13.666;2022-08-30T14:05:31;69540.00;;;21.48;100.00
36354;BME280;22383;51.114;13.666;2022-08-30T14:08:22;69599.66;;;21.80;100.00
36354;BME280;22383;51.114;13.666;2022-08-30T14:11:10;69640.41;;;22.19;100.00
36354;BME280;22383;51.114;13.666;2022-08-30T14:13:40;69650.16;;;22.27;100.00